CheckWX is a tool to help pilots better visualize weather data.  It is not intended as a substitute for an official pre-flight weather briefing.

08:38:35 UTC

KLHQ METAR
Fairfield County Airport
Lancaster, Ohio, USA
Current

46 mins ago

KLHQ 170753Z AUTO 19003KT 10SM CLR 23/21 A2996 RMK AO2 RAB00E15 SLP135 P0000 T02330211
Observed
Jul-17 @ 07:53 UTC
Wind
  • 190° at 3 KTS
Visibility
10 SM
Flight Rules
VFR
Cloud Levels
  • Clear skies
Temperature
23°C / 73°F
Dewpoint
21°C / 70°F
Humidity
89%
Altimeter
29.96" Hg
Pressure
1014.52 hPa
Current Rain
0.01"
Previous

2 hours ago

KLHQ 170653Z AUTO 15005KT 10SM CLR 23/21 A2996 RMK AO2 RAE08 TSB0554E09 SLP137 P0001 T02280211
Observed
Jul-17 @ 06:53 UTC
Wind
  • 150° at 5 KTS
Visibility
10 SM
Flight Rules
VFR
Cloud Levels
  • Clear skies
Temperature
23°C / 73°F
Dewpoint
21°C / 70°F
Humidity
89%
Altimeter
29.96" Hg
Pressure
1014.52 hPa
Current Rain
0.01"
Previous

2 hours ago

KLHQ 170615Z AUTO 15005KT 10SM FEW027 SCT070 SCT095 23/21 A2997 RMK AO2 RAE08 TSB0554E09 P0001 T02280211
Observed
Jul-17 @ 06:15 UTC
Wind
  • 150° at 5 KTS
Visibility
10 SM
Flight Rules
VFR
Cloud Levels
  • Few at 2,700' AGL
  • Scattered at 7,000' AGL
  • Scattered at 9,500' AGL
Temperature
23°C / 73°F
Dewpoint
21°C / 70°F
Humidity
89%
Altimeter
29.97" Hg
Pressure
1014.92 hPa
Current Rain
0.01"